Stream Side, Ohio
Current Conditions -  °F | °C
As of 4:35 AM on Friday 24 Oct 2014 (Local Time) from KDWU Reporting Station
Overcast Overcast  
Wind Chill: 43°   Ceiling: 300
Heat Index: 43°   Visibility: 9mi
Dew Point: 37°   Wind: 3mph
Humidity: 81%   Direction: 260°W
Pressure: 30.11"   Gusts: NA
Location:  38.6456°N, 82.7977°W
Report Text: KDWU 240835Z AUTO 26003KT 9SM OVC003 06/03 A3011 RMK AO1
Loading
Personal Weather Stations






























Interactive Weather Map
Tropical Storm Tracking
New forecast layout! Learn more

10-Day Weather Forecast

Advertisements
Track Severe Weather on mobile